sensor_id;sensor_type;location;lat;lon;timestamp;pressure;altitude;pressure_sealevel;temperature;humidity
64628;BME280;68467;50.960;0.314;2023-03-15T00:00:31;99683.31;;;3.72;100.00
64628;BME280;68467;50.960;0.314;2023-03-15T00:02:58;99684.28;;;3.78;100.00
64628;BME280;68467;50.960;0.314;2023-03-15T00:05:26;99686.94;;;3.54;100.00
64628;BME280;68467;50.960;0.314;2023-03-15T00:07:53;99692.04;;;3.94;100.00
64628;BME280;68467;50.960;0.314;2023-03-15T00:10:20;99691.55;;;3.96;100.00
64628;BME280;68467;50.960;0.314;2023-03-15T00:12:47;99694.13;;;4.70;100.00
64628;BME280;68467;50.960;0.314;2023-03-15T00:15:15;99700.00;;;3.87;100.00
64628;BME280;68467;50.960;0.314;2023-03-15T00:17:42;99706.49;;;3.14;100.00
64628;BME280;68467;50.960;0.314;2023-03-15T00:20:10;99710.87;;;4.09;100.00
64628;BME280;68467;50.960;0.314;2023-03-15T00:22:37;99710.73;;;3.46;100.00
64628;BME280;68467;50.960;0.314;2023-03-15T00:25:06;99712.68;;;3.12;100.00
64628;BME280;68467;50.960;0.314;2023-03-15T00:27:33;99716.27;;;3.47;100.00
64628;BME280;68467;50.960;0.314;2023-03-15T00:30:00;99721.29;;;3.39;100.00
64628;BME280;68467;50.960;0.314;2023-03-15T00:32:27;99727.17;;;3.16;100.00
64628;BME280;68467;50.960;0.314;2023-03-15T00:34:55;99732.75;;;2.96;100.00
64628;BME280;68467;50.960;0.314;2023-03-15T00:37:22;99736.40;;;3.03;100.00
64628;BME280;68467;50.960;0.314;2023-03-15T00:39:49;99738.27;;;2.65;100.00
64628;BME280;68467;50.960;0.314;2023-03-15T00:42:16;99738.55;;;2.47;100.00
64628;BME280;68467;50.960;0.314;2023-03-15T00:44:44;99737.50;;;2.84;100.00
64628;BME280;68467;50.960;0.314;2023-03-15T00:47:13;99735.16;;;2.54;100.00
64628;BME280;68467;50.960;0.314;2023-03-15T00:49:40;99733.19;;;2.32;100.00
64628;BME280;68467;50.960;0.314;2023-03-15T00:52:07;99739.31;;;1.86;100.00
64628;BME280;68467;50.960;0.314;2023-03-15T00:54:35;99739.87;;;2.13;100.00
64628;BME280;68467;50.960;0.314;2023-03-15T00:57:03;99741.51;;;1.62;100.00
64628;BME280;68467;50.960;0.314;2023-03-15T00:59:31;99744.98;;;1.89;100.00
64628;BME280;68467;50.960;0.314;2023-03-15T01:01:59;99745.52;;;1.51;100.00
64628;BME280;68467;50.960;0.314;2023-03-15T01:04:27;99757.81;;;1.83;100.00
64628;BME280;68467;50.960;0.314;2023-03-15T01:06:54;99760.36;;;1.27;100.00
64628;BME280;68467;50.960;0.314;2023-03-15T01:09:22;99759.67;;;1.90;100.00
64628;BME280;68467;50.960;0.314;2023-03-15T01:11:49;99759.06;;;1.51;100.00
64628;BME280;68467;50.960;0.314;2023-03-15T01:14:17;99760.67;;;1.33;100.00
64628;BME280;68467;50.960;0.314;2023-03-15T01:16:45;99764.37;;;0.93;100.00
64628;BME280;68467;50.960;0.314;2023-03-15T01:19:12;99772.33;;;1.37;100.00
64628;BME280;68467;50.960;0.314;2023-03-15T01:21:39;99773.52;;;0.64;100.00
64628;BME280;68467;50.960;0.314;2023-03-15T01:24:10;99772.50;;;1.21;100.00
64628;BME280;68467;50.960;0.314;2023-03-15T01:26:39;99770.17;;;1.27;100.00
64628;BME280;68467;50.960;0.314;2023-03-15T01:29:07;99767.56;;;1.68;100.00
64628;BME280;68467;50.960;0.314;2023-03-15T01:31:35;99767.48;;;1.03;100.00
64628;BME280;68467;50.960;0.314;2023-03-15T01:34:01;99766.48;;;1.08;100.00
64628;BME280;68467;50.960;0.314;2023-03-15T01:36:28;99769.50;;;0.86;100.00
64628;BME280;68467;50.960;0.314;2023-03-15T01:38:56;99770.21;;;1.01;100.00
64628;BME280;68467;50.960;0.314;2023-03-15T01:41:23;99774.27;;;0.58;100.00
64628;BME280;68467;50.960;0.314;2023-03-15T01:43:50;99778.57;;;0.24;100.00
64628;BME280;68467;50.960;0.314;2023-03-15T01:46:23;99789.27;;;1.16;100.00
64628;BME280;68467;50.960;0.314;2023-03-15T01:48:56;99791.60;;;1.23;100.00
64628;BME280;68467;50.960;0.314;2023-03-15T01:51:32;99789.63;;;1.48;100.00
64628;BME280;68467;50.960;0.314;2023-03-15T01:54:05;99788.27;;;1.20;100.00
64628;BME280;68467;50.960;0.314;2023-03-15T01:56:36;99793.76;;;1.61;100.00
64628;BME280;68467;50.960;0.314;2023-03-15T01:59:05;99794.84;;;1.43;100.00
64628;BME280;68467;50.960;0.314;2023-03-15T02:01:36;99793.84;;;1.88;100.00
64628;BME280;68467;50.960;0.314;2023-03-15T02:04:09;99797.14;;;2.01;100.00
64628;BME280;68467;50.960;0.314;2023-03-15T02:06:38;99803.16;;;1.06;100.00
64628;BME280;68467;50.960;0.314;2023-03-15T02:09:08;99806.15;;;1.78;100.00
64628;BME280;68467;50.960;0.314;2023-03-15T02:11:36;99806.27;;;2.48;100.00
64628;BME280;68467;50.960;0.314;2023-03-15T02:14:04;99805.24;;;1.90;100.00
64628;BME280;68467;50.960;0.314;2023-03-15T02:16:33;99810.68;;;1.41;100.00
64628;BME280;68467;50.960;0.314;2023-03-15T02:19:00;99815.82;;;1.00;100.00
64628;BME280;68467;50.960;0.314;2023-03-15T02:21:35;99817.09;;;0.60;100.00
64628;BME280;68467;50.960;0.314;2023-03-15T02:24:17;99817.46;;;1.38;100.00
64628;BME280;68467;50.960;0.314;2023-03-15T02:26:52;99816.80;;;1.41;100.00
64628;BME280;68467;50.960;0.314;2023-03-15T02:29:21;99816.93;;;1.64;100.00
64628;BME280;68467;50.960;0.314;2023-03-15T02:31:50;99814.51;;;2.54;100.00
64628;BME280;68467;50.960;0.314;2023-03-15T02:34:18;99814.44;;;2.54;100.00
64628;BME280;68467;50.960;0.314;2023-03-15T02:36:45;99815.05;;;2.22;100.00
64628;BME280;68467;50.960;0.314;2023-03-15T02:39:14;99816.76;;;2.38;100.00
64628;BME280;68467;50.960;0.314;2023-03-15T02:41:43;99819.41;;;2.04;100.00
64628;BME280;68467;50.960;0.314;2023-03-15T02:44:15;99818.83;;;2.39;100.00
64628;BME280;68467;50.960;0.314;2023-03-15T02:46:47;99816.41;;;1.74;100.00
64628;BME280;68467;50.960;0.314;2023-03-15T02:49:16;99817.57;;;1.83;100.00
64628;BME280;68467;50.960;0.314;2023-03-15T02:51:45;99818.98;;;1.73;100.00
64628;BME280;68467;50.960;0.314;2023-03-15T02:54:11;99819.12;;;2.32;100.00
64628;BME280;68467;50.960;0.314;2023-03-15T02:56:39;99822.73;;;1.67;100.00
64628;BME280;68467;50.960;0.314;2023-03-15T02:59:07;99823.91;;;1.74;100.00
64628;BME280;68467;50.960;0.314;2023-03-15T03:01:33;99830.24;;;1.01;100.00
64628;BME280;68467;50.960;0.314;2023-03-15T03:04:01;99827.16;;;1.22;100.00
64628;BME280;68467;50.960;0.314;2023-03-15T03:06:29;99831.45;;;1.81;100.00
64628;BME280;68467;50.960;0.314;2023-03-15T03:08:56;99829.13;;;1.22;100.00
64628;BME280;68467;50.960;0.314;2023-03-15T03:11:23;99830.67;;;1.20;100.00
64628;BME280;68467;50.960;0.314;2023-03-15T03:13:51;99825.79;;;1.86;100.00
64628;BME280;68467;50.960;0.314;2023-03-15T03:16:18;99825.65;;;1.71;100.00
64628;BME280;68467;50.960;0.314;2023-03-15T03:18:45;99827.79;;;1.77;100.00
64628;BME280;68467;50.960;0.314;2023-03-15T03:21:12;99825.85;;;2.21;100.00
64628;BME280;68467;50.960;0.314;2023-03-15T03:23:40;99824.83;;;2.97;100.00
64628;BME280;68467;50.960;0.314;2023-03-15T03:26:12;99824.02;;;2.33;100.00
64628;BME280;68467;50.960;0.314;2023-03-15T03:28:40;99825.21;;;1.93;100.00
64628;BME280;68467;50.960;0.314;2023-03-15T03:31:15;99825.89;;;1.95;100.00
64628;BME280;68467;50.960;0.314;2023-03-15T03:33:43;99824.78;;;1.44;100.00
64628;BME280;68467;50.960;0.314;2023-03-15T03:36:10;99825.72;;;1.70;100.00
64628;BME280;68467;50.960;0.314;2023-03-15T03:38:38;99823.07;;;1.82;100.00
64628;BME280;68467;50.960;0.314;2023-03-15T03:41:05;99820.35;;;2.57;100.00
64628;BME280;68467;50.960;0.314;2023-03-15T03:43:32;99828.61;;;2.86;100.00
64628;BME280;68467;50.960;0.314;2023-03-15T03:46:00;99830.74;;;3.23;100.00
64628;BME280;68467;50.960;0.314;2023-03-15T03:48:27;99841.34;;;2.51;100.00
64628;BME280;68467;50.960;0.314;2023-03-15T03:50:54;99848.37;;;2.29;100.00
64628;BME280;68467;50.960;0.314;2023-03-15T03:53:22;99849.92;;;2.48;100.00
64628;BME280;68467;50.960;0.314;2023-03-15T03:55:49;99856.53;;;1.73;100.00
64628;BME280;68467;50.960;0.314;2023-03-15T03:58:17;99870.50;;;3.58;100.00
64628;BME280;68467;50.960;0.314;2023-03-15T04:00:44;99882.51;;;2.76;100.00
64628;BME280;68467;50.960;0.314;2023-03-15T04:03:11;99880.33;;;3.64;100.00
64628;BME280;68467;50.960;0.314;2023-03-15T04:05:38;99885.68;;;2.86;100.00
64628;BME280;68467;50.960;0.314;2023-03-15T04:08:06;99886.85;;;3.34;100.00
64628;BME280;68467;50.960;0.314;2023-03-15T04:10:33;99890.26;;;3.42;100.00
64628;BME280;68467;50.960;0.314;2023-03-15T04:13:00;99898.34;;;3.79;100.00
64628;BME280;68467;50.960;0.314;2023-03-15T04:15:27;99899.53;;;3.95;100.00
64628;BME280;68467;50.960;0.314;2023-03-15T04:17:55;99901.52;;;3.90;100.00
64628;BME280;68467;50.960;0.314;2023-03-15T04:20:23;99898.59;;;3.69;100.00
64628;BME280;68467;50.960;0.314;2023-03-15T04:22:51;99900.15;;;2.26;100.00
64628;BME280;68467;50.960;0.314;2023-03-15T04:25:20;99897.47;;;3.45;100.00
64628;BME280;68467;50.960;0.314;2023-03-15T04:27:47;99892.84;;;3.20;100.00
64628;BME280;68467;50.960;0.314;2023-03-15T04:30:15;99890.40;;;3.17;100.00
64628;BME280;68467;50.960;0.314;2023-03-15T04:32:42;99885.85;;;3.40;100.00
64628;BME280;68467;50.960;0.314;2023-03-15T04:35:08;99891.20;;;2.27;100.00
64628;BME280;68467;50.960;0.314;2023-03-15T04:37:36;99893.19;;;2.71;100.00
64628;BME280;68467;50.960;0.314;2023-03-15T04:40:04;99898.43;;;2.30;100.00
64628;BME280;68467;50.960;0.314;2023-03-15T04:42:31;99899.14;;;2.87;100.00
64628;BME280;68467;50.960;0.314;2023-03-15T04:44:58;99897.46;;;3.36;100.00
64628;BME280;68467;50.960;0.314;2023-03-15T04:47:26;99898.76;;;2.99;100.00
64628;BME280;68467;50.960;0.314;2023-03-15T04:49:53;99894.14;;;2.70;100.00
64628;BME280;68467;50.960;0.314;2023-03-15T04:52:20;99892.32;;;2.79;100.00
64628;BME280;68467;50.960;0.314;2023-03-15T04:54:47;99897.54;;;2.38;100.00
64628;BME280;68467;50.960;0.314;2023-03-15T04:57:14;99894.80;;;3.81;100.00
64628;BME280;68467;50.960;0.314;2023-03-15T04:59:42;99891.52;;;3.45;100.00
64628;BME280;68467;50.960;0.314;2023-03-15T05:02:09;99893.08;;;2.82;100.00
64628;BME280;68467;50.960;0.314;2023-03-15T05:04:36;99893.43;;;2.94;100.00
64628;BME280;68467;50.960;0.314;2023-03-15T05:07:03;99897.43;;;3.49;100.00
64628;BME280;68467;50.960;0.314;2023-03-15T05:09:31;99910.99;;;3.15;100.00
64628;BME280;68467;50.960;0.314;2023-03-15T05:11:58;99907.90;;;2.77;100.00
64628;BME280;68467;50.960;0.314;2023-03-15T05:14:25;99901.38;;;2.04;100.00
64628;BME280;68467;50.960;0.314;2023-03-15T05:16:52;99901.03;;;2.54;100.00
64628;BME280;68467;50.960;0.314;2023-03-15T05:19:20;99906.81;;;2.07;100.00
64628;BME280;68467;50.960;0.314;2023-03-15T05:21:47;99906.27;;;1.64;100.00
64628;BME280;68467;50.960;0.314;2023-03-15T05:24:14;99903.27;;;1.74;100.00
64628;BME280;68467;50.960;0.314;2023-03-15T05:26:41;99897.20;;;1.37;100.00
64628;BME280;68467;50.960;0.314;2023-03-15T05:29:08;99901.29;;;1.30;100.00
64628;BME280;68467;50.960;0.314;2023-03-15T05:31:36;99903.71;;;1.85;100.00
64628;BME280;68467;50.960;0.314;2023-03-15T05:34:03;99908.31;;;2.52;100.00
64628;BME280;68467;50.960;0.314;2023-03-15T05:36:31;99910.58;;;2.42;100.00
64628;BME280;68467;50.960;0.314;2023-03-15T05:38:59;99911.44;;;2.12;100.00
64628;BME280;68467;50.960;0.314;2023-03-15T05:41:25;99911.78;;;1.68;100.00
64628;BME280;68467;50.960;0.314;2023-03-15T05:43:53;99920.35;;;2.24;100.00
64628;BME280;68467;50.960;0.314;2023-03-15T05:46:20;99924.82;;;2.18;100.00
64628;BME280;68467;50.960;0.314;2023-03-15T05:48:47;99930.15;;;1.43;100.00
64628;BME280;68467;50.960;0.314;2023-03-15T05:51:14;99924.69;;;0.89;100.00
64628;BME280;68467;50.960;0.314;2023-03-15T05:53:42;99925.71;;;1.23;100.00
64628;BME280;68467;50.960;0.314;2023-03-15T05:56:09;99931.76;;;1.51;100.00
64628;BME280;68467;50.960;0.314;2023-03-15T05:58:36;99929.73;;;1.61;100.00
64628;BME280;68467;50.960;0.314;2023-03-15T06:01:04;99925.96;;;1.60;100.00
64628;BME280;68467;50.960;0.314;2023-03-15T06:03:31;99930.76;;;0.94;100.00
64628;BME280;68467;50.960;0.314;2023-03-15T06:05:58;99935.20;;;1.52;100.00
64628;BME280;68467;50.960;0.314;2023-03-15T06:08:25;99942.07;;;1.37;100.00
64628;BME280;68467;50.960;0.314;2023-03-15T06:10:52;99942.12;;;1.19;100.00
64628;BME280;68467;50.960;0.314;2023-03-15T06:13:20;99944.11;;;1.07;100.00
64628;BME280;68467;50.960;0.314;2023-03-15T06:15:47;99947.57;;;0.94;100.00
64628;BME280;68467;50.960;0.314;2023-03-15T06:18:14;99950.60;;;1.33;100.00
64628;BME280;68467;50.960;0.314;2023-03-15T06:20:42;99955.93;;;1.24;100.00
64628;BME280;68467;50.960;0.314;2023-03-15T06:23:10;99957.13;;;1.22;100.00
64628;BME280;68467;50.960;0.314;2023-03-15T06:25:36;99961.05;;;0.85;100.00
64628;BME280;68467;50.960;0.314;2023-03-15T06:28:04;99965.98;;;1.29;100.00
64628;BME280;68467;50.960;0.314;2023-03-15T06:30:31;99968.94;;;1.27;100.00
64628;BME280;68467;50.960;0.314;2023-03-15T06:32:58;99975.70;;;0.92;100.00
64628;BME280;68467;50.960;0.314;2023-03-15T06:35:26;99979.38;;;0.96;100.00
64628;BME280;68467;50.960;0.314;2023-03-15T06:37:53;99978.59;;;0.83;100.00
64628;BME280;68467;50.960;0.314;2023-03-15T06:40:20;99984.65;;;0.55;100.00
64628;BME280;68467;50.960;0.314;2023-03-15T06:42:47;99983.03;;;0.75;100.00
64628;BME280;68467;50.960;0.314;2023-03-15T06:45:15;99985.95;;;0.77;100.00
64628;BME280;68467;50.960;0.314;2023-03-15T06:47:42;99985.64;;;0.77;100.00
64628;BME280;68467;50.960;0.314;2023-03-15T06:50:10;99988.74;;;0.48;100.00
64628;BME280;68467;50.960;0.314;2023-03-15T06:52:38;99992.67;;;0.85;100.00
64628;BME280;68467;50.960;0.314;2023-03-15T06:55:06;99995.40;;;0.57;100.00
64628;BME280;68467;50.960;0.314;2023-03-15T06:57:33;99991.66;;;0.62;100.00
64628;BME280;68467;50.960;0.314;2023-03-15T07:00:01;99991.73;;;0.29;100.00
64628;BME280;68467;50.960;0.314;2023-03-15T07:02:28;99993.72;;;1.00;100.00
64628;BME280;68467;50.960;0.314;2023-03-15T07:04:55;99993.35;;;0.69;100.00
64628;BME280;68467;50.960;0.314;2023-03-15T07:07:22;99994.01;;;0.78;100.00
64628;BME280;68467;50.960;0.314;2023-03-15T07:09:50;99998.17;;;1.33;100.00
64628;BME280;68467;50.960;0.314;2023-03-15T07:12:17;100004.08;;;2.62;100.00
64628;BME280;68467;50.960;0.314;2023-03-15T07:14:44;100010.80;;;1.90;100.00
64628;BME280;68467;50.960;0.314;2023-03-15T07:17:11;100004.19;;;2.32;100.00
64628;BME280;68467;50.960;0.314;2023-03-15T07:19:39;100003.33;;;2.93;100.00
64628;BME280;68467;50.960;0.314;2023-03-15T07:22:06;100009.09;;;3.40;100.00
64628;BME280;68467;50.960;0.314;2023-03-15T07:24:33;100013.86;;;1.86;100.00
64628;BME280;68467;50.960;0.314;2023-03-15T07:27:00;100011.71;;;3.01;100.00
64628;BME280;68467;50.960;0.314;2023-03-15T07:29:28;100018.73;;;2.48;100.00
64628;BME280;68467;50.960;0.314;2023-03-15T07:31:55;100021.65;;;2.87;100.00
64628;BME280;68467;50.960;0.314;2023-03-15T07:34:22;100020.14;;;2.50;100.00
64628;BME280;68467;50.960;0.314;2023-03-15T07:36:49;100023.61;;;2.11;100.00
64628;BME280;68467;50.960;0.314;2023-03-15T07:39:17;100027.25;;;3.12;100.00
64628;BME280;68467;50.960;0.314;2023-03-15T07:41:44;100031.20;;;3.56;100.00
64628;BME280;68467;50.960;0.314;2023-03-15T07:44:11;100030.65;;;2.40;100.00
64628;BME280;68467;50.960;0.314;2023-03-15T07:46:38;100032.36;;;3.94;100.00
64628;BME280;68467;50.960;0.314;2023-03-15T07:49:05;100038.58;;;2.86;100.00
64628;BME280;68467;50.960;0.314;2023-03-15T07:51:33;100035.63;;;3.76;100.00
64628;BME280;68467;50.960;0.314;2023-03-15T07:54:00;100034.35;;;3.58;100.00
64628;BME280;68467;50.960;0.314;2023-03-15T07:56:27;100036.65;;;3.74;100.00
64628;BME280;68467;50.960;0.314;2023-03-15T07:58:54;100039.13;;;2.29;100.00
64628;BME280;68467;50.960;0.314;2023-03-15T08:01:21;100043.68;;;2.42;100.00
64628;BME280;68467;50.960;0.314;2023-03-15T08:03:48;100048.04;;;2.37;100.00
64628;BME280;68467;50.960;0.314;2023-03-15T08:06:16;100052.68;;;1.25;100.00
64628;BME280;68467;50.960;0.314;2023-03-15T08:08:43;100055.69;;;2.41;100.00
64628;BME280;68467;50.960;0.314;2023-03-15T08:11:10;100054.71;;;1.81;100.00
64628;BME280;68467;50.960;0.314;2023-03-15T08:13:37;100051.35;;;2.58;100.00
64628;BME280;68467;50.960;0.314;2023-03-15T08:16:05;100049.67;;;2.78;100.00
64628;BME280;68467;50.960;0.314;2023-03-15T08:18:32;100050.27;;;2.61;100.00
64628;BME280;68467;50.960;0.314;2023-03-15T08:20:59;100053.78;;;2.64;100.00
64628;BME280;68467;50.960;0.314;2023-03-15T08:23:26;100053.79;;;3.27;100.00
64628;BME280;68467;50.960;0.314;2023-03-15T08:25:54;100058.47;;;3.13;100.00
64628;BME280;68467;50.960;0.314;2023-03-15T08:28:21;100058.42;;;2.16;100.00
64628;BME280;68467;50.960;0.314;2023-03-15T08:30:49;100055.80;;;2.35;100.00
64628;BME280;68467;50.960;0.314;2023-03-15T08:33:16;100053.48;;;2.54;100.00
64628;BME280;68467;50.960;0.314;2023-03-15T08:35:43;100055.78;;;2.27;100.00
64628;BME280;68467;50.960;0.314;2023-03-15T08:38:10;100055.90;;;2.58;100.00
64628;BME280;68467;50.960;0.314;2023-03-15T08:40:37;100060.93;;;2.25;100.00
64628;BME280;68467;50.960;0.314;2023-03-15T08:43:05;100060.02;;;2.41;100.00
64628;BME280;68467;50.960;0.314;2023-03-15T08:45:32;100061.45;;;2.91;100.00
64628;BME280;68467;50.960;0.314;2023-03-15T08:47:59;100060.45;;;2.55;100.00
64628;BME280;68467;50.960;0.314;2023-03-15T08:50:27;100063.85;;;2.77;100.00
64628;BME280;68467;50.960;0.314;2023-03-15T08:52:54;100062.33;;;2.56;100.00
64628;BME280;68467;50.960;0.314;2023-03-15T08:55:22;100063.26;;;2.79;100.00
64628;BME280;68467;50.960;0.314;2023-03-15T08:57:49;100060.98;;;2.86;100.00
64628;BME280;68467;50.960;0.314;2023-03-15T09:00:16;100063.23;;;2.38;100.00
64628;BME280;68467;50.960;0.314;2023-03-15T09:02:44;100061.77;;;2.52;100.00
64628;BME280;68467;50.960;0.314;2023-03-15T09:05:11;100061.86;;;2.97;100.00
64628;BME280;68467;50.960;0.314;2023-03-15T09:07:39;100059.74;;;2.78;100.00
64628;BME280;68467;50.960;0.314;2023-03-15T09:10:06;100063.72;;;2.35;100.00
64628;BME280;68467;50.960;0.314;2023-03-15T09:12:34;100065.39;;;2.04;100.00
64628;BME280;68467;50.960;0.314;2023-03-15T09:15:01;100069.87;;;2.58;100.00
64628;BME280;68467;50.960;0.314;2023-03-15T09:17:28;100068.01;;;3.06;100.00
64628;BME280;68467;50.960;0.314;2023-03-15T09:19:55;100071.04;;;2.93;100.00
64628;BME280;68467;50.960;0.314;2023-03-15T09:22:22;100072.73;;;3.07;100.00
64628;BME280;68467;50.960;0.314;2023-03-15T09:24:50;100072.95;;;3.46;100.00
64628;BME280;68467;50.960;0.314;2023-03-15T09:27:17;100073.06;;;2.78;100.00
64628;BME280;68467;50.960;0.314;2023-03-15T09:29:44;100069.91;;;2.54;100.00
64628;BME280;68467;50.960;0.314;2023-03-15T09:32:11;100067.84;;;2.71;100.00
64628;BME280;68467;50.960;0.314;2023-03-15T09:34:39;100069.37;;;2.59;100.00
64628;BME280;68467;50.960;0.314;2023-03-15T09:37:06;100067.60;;;2.52;100.00
64628;BME280;68467;50.960;0.314;2023-03-15T09:39:35;100065.62;;;2.61;100.00
64628;BME280;68467;50.960;0.314;2023-03-15T09:42:05;100067.86;;;2.67;100.00
64628;BME280;68467;50.960;0.314;2023-03-15T09:44:43;100067.81;;;2.45;100.00
64628;BME280;68467;50.960;0.314;2023-03-15T09:47:24;100076.29;;;2.74;100.00
64628;BME280;68467;50.960;0.314;2023-03-15T09:49:58;100079.44;;;2.94;100.00
64628;BME280;68467;50.960;0.314;2023-03-15T09:52:34;100081.59;;;2.40;100.00
64628;BME280;68467;50.960;0.314;2023-03-15T09:55:10;100084.38;;;2.69;100.00
64628;BME280;68467;50.960;0.314;2023-03-15T09:57:43;100081.42;;;2.75;100.00
64628;BME280;68467;50.960;0.314;2023-03-15T10:00:16;100083.69;;;2.54;100.00
64628;BME280;68467;50.960;0.314;2023-03-15T10:02:53;100080.73;;;3.09;100.00
64628;BME280;68467;50.960;0.314;2023-03-15T10:05:30;100087.88;;;2.39;100.00
64628;BME280;68467;50.960;0.314;2023-03-15T10:07:58;100086.47;;;2.76;100.00
64628;BME280;68467;50.960;0.314;2023-03-15T10:10:31;100087.96;;;2.84;100.00
64628;BME280;68467;50.960;0.314;2023-03-15T10:13:09;100085.23;;;3.06;100.00
64628;BME280;68467;50.960;0.314;2023-03-15T10:15:47;100092.58;;;2.81;100.00
64628;BME280;68467;50.960;0.314;2023-03-15T10:18:29;100092.03;;;3.86;100.00
64628;BME280;68467;50.960;0.314;2023-03-15T10:21:04;100094.69;;;3.10;100.00
64628;BME280;68467;50.960;0.314;2023-03-15T10:23:42;100095.09;;;3.24;100.00
64628;BME280;68467;50.960;0.314;2023-03-15T10:26:14;100092.88;;;2.70;100.00
64628;BME280;68467;50.960;0.314;2023-03-15T10:28:44;100091.63;;;2.73;100.00
64628;BME280;68467;50.960;0.314;2023-03-15T10:33:27;100091.36;;;3.16;100.00
64628;BME280;68467;50.960;0.314;2023-03-15T10:35:55;100093.61;;;2.88;100.00
64628;BME280;68467;50.960;0.314;2023-03-15T10:38:24;100100.92;;;2.80;100.00
64628;BME280;68467;50.960;0.314;2023-03-15T10:40:53;100099.94;;;2.46;100.00
64628;BME280;68467;50.960;0.314;2023-03-15T10:43:22;100100.34;;;2.37;100.00
64628;BME280;68467;50.960;0.314;2023-03-15T10:45:59;100096.06;;;2.15;100.00
64628;BME280;68467;50.960;0.314;2023-03-15T10:48:28;100099.44;;;2.21;100.00
64628;BME280;68467;50.960;0.314;2023-03-15T10:50:56;100099.72;;;2.44;100.00
64628;BME280;68467;50.960;0.314;2023-03-15T10:53:23;100102.23;;;2.18;100.00
64628;BME280;68467;50.960;0.314;2023-03-15T10:55:58;100101.97;;;2.04;100.00
64628;BME280;68467;50.960;0.314;2023-03-15T10:58:29;100098.81;;;2.06;100.00
64628;BME280;68467;50.960;0.314;2023-03-15T11:01:06;100101.94;;;2.79;100.00
64628;BME280;68467;50.960;0.314;2023-03-15T11:03:35;100100.29;;;2.56;100.00
64628;BME280;68467;50.960;0.314;2023-03-15T11:06:18;100109.09;;;2.44;100.00
64628;BME280;68467;50.960;0.314;2023-03-15T11:08:47;100108.97;;;2.81;100.00
64628;BME280;68467;50.960;0.314;2023-03-15T11:11:14;100112.78;;;2.72;100.00
64628;BME280;68467;50.960;0.314;2023-03-15T11:13:41;100115.00;;;2.38;100.00
64628;BME280;68467;50.960;0.314;2023-03-15T11:16:19;100111.66;;;2.52;100.00
64628;BME280;68467;50.960;0.314;2023-03-15T11:18:50;100114.04;;;3.02;100.00
64628;BME280;68467;50.960;0.314;2023-03-15T11:21:24;100114.81;;;3.46;100.00
64628;BME280;68467;50.960;0.314;2023-03-15T11:23:53;100111.32;;;3.71;100.00
64628;BME280;68467;50.960;0.314;2023-03-15T11:26:23;100105.56;;;3.15;100.00
64628;BME280;68467;50.960;0.314;2023-03-15T11:28:52;100102.03;;;2.88;100.00
64628;BME280;68467;50.960;0.314;2023-03-15T11:31:25;100104.78;;;2.67;100.00
64628;BME280;68467;50.960;0.314;2023-03-15T11:33:55;100099.34;;;3.48;100.00
64628;BME280;68467;50.960;0.314;2023-03-15T11:36:27;100095.04;;;3.25;100.00
64628;BME280;68467;50.960;0.314;2023-03-15T11:38:59;100088.91;;;3.23;100.00
64628;BME280;68467;50.960;0.314;2023-03-15T11:41:31;100094.03;;;3.15;100.00
64628;BME280;68467;50.960;0.314;2023-03-15T11:44:11;100090.63;;;3.38;100.00
64628;BME280;68467;50.960;0.314;2023-03-15T11:46:44;100094.13;;;3.66;100.00
64628;BME280;68467;50.960;0.314;2023-03-15T11:49:18;100096.23;;;3.42;100.00
64628;BME280;68467;50.960;0.314;2023-03-15T11:51:48;100095.53;;;3.67;100.00
64628;BME280;68467;50.960;0.314;2023-03-15T11:54:17;100091.26;;;3.60;100.00
64628;BME280;68467;50.960;0.314;2023-03-15T11:56:49;100092.62;;;3.22;100.00
64628;BME280;68467;50.960;0.314;2023-03-15T11:59:17;100092.26;;;3.46;100.00
64628;BME280;68467;50.960;0.314;2023-03-15T12:01:46;100093.59;;;3.74;100.00
64628;BME280;68467;50.960;0.314;2023-03-15T12:04:47;100093.82;;;3.94;100.00
64628;BME280;68467;50.960;0.314;2023-03-15T12:07:35;100091.47;;;3.71;100.00
64628;BME280;68467;50.960;0.314;2023-03-15T12:10:30;100096.77;;;3.94;100.00
64628;BME280;68467;50.960;0.314;2023-03-15T12:12:59;100089.81;;;4.57;100.00
64628;BME280;68467;50.960;0.314;2023-03-15T12:15:44;100096.56;;;4.65;100.00
64628;BME280;68467;50.960;0.314;2023-03-15T12:18:25;100096.01;;;4.21;100.00
64628;BME280;68467;50.960;0.314;2023-03-15T12:21:14;100093.75;;;3.66;100.00
64628;BME280;68467;50.960;0.314;2023-03-15T12:23:45;100089.29;;;4.49;100.00
64628;BME280;68467;50.960;0.314;2023-03-15T12:26:22;100081.49;;;4.82;100.00
64628;BME280;68467;50.960;0.314;2023-03-15T12:29:00;100079.28;;;4.68;100.00
64628;BME280;68467;50.960;0.314;2023-03-15T12:31:43;100070.93;;;4.24;100.00
64628;BME280;68467;50.960;0.314;2023-03-15T12:34:14;100067.21;;;4.34;100.00
64628;BME280;68467;50.960;0.314;2023-03-15T12:36:51;100061.70;;;4.61;100.00
64628;BME280;68467;50.960;0.314;2023-03-15T12:39:32;100066.35;;;3.87;100.00
64628;BME280;68467;50.960;0.314;2023-03-15T12:42:03;100057.94;;;3.84;100.00
64628;BME280;68467;50.960;0.314;2023-03-15T12:44:46;100054.95;;;3.89;100.00
64628;BME280;68467;50.960;0.314;2023-03-15T12:47:13;100052.92;;;3.80;100.00
64628;BME280;68467;50.960;0.314;2023-03-15T12:49:42;100059.14;;;3.57;100.00
64628;BME280;68467;50.960;0.314;2023-03-15T12:52:27;100048.96;;;3.65;100.00
64628;BME280;68467;50.960;0.314;2023-03-15T12:55:09;100039.78;;;4.18;100.00
64628;BME280;68467;50.960;0.314;2023-03-15T12:57:44;100035.90;;;3.94;100.00
64628;BME280;68467;50.960;0.314;2023-03-15T13:00:15;100033.17;;;4.06;100.00
64628;BME280;68467;50.960;0.314;2023-03-15T13:02:45;100031.01;;;3.71;100.00
64628;BME280;68467;50.960;0.314;2023-03-15T13:05:20;100026.59;;;3.58;100.00
64628;BME280;68467;50.960;0.314;2023-03-15T13:08:19;100020.43;;;4.00;100.00